sensor_id;sensor_type;location;lat;lon;timestamp;P1;durP1;ratioP1;P2;durP2;ratioP2
29358;SDS011;16347;53.232;6.556;2023-11-18T00:02:21;39.88;;;19.98;;
29358;SDS011;16347;53.232;6.556;2023-11-18T00:04:50;49.60;;;20.40;;
29358;SDS011;16347;53.232;6.556;2023-11-18T00:07:18;40.83;;;18.48;;
29358;SDS011;16347;53.232;6.556;2023-11-18T00:09:46;45.17;;;20.75;;
29358;SDS011;16347;53.232;6.556;2023-11-18T00:12:14;45.40;;;20.88;;
29358;SDS011;16347;53.232;6.556;2023-11-18T00:14:43;47.25;;;21.42;;
29358;SDS011;16347;53.232;6.556;2023-11-18T00:17:12;48.35;;;22.13;;
29358;SDS011;16347;53.232;6.556;2023-11-18T00:19:39;48.38;;;20.63;;
29358;SDS011;16347;53.232;6.556;2023-11-18T00:22:08;47.13;;;22.02;;
29358;SDS011;16347;53.232;6.556;2023-11-18T00:24:37;46.85;;;21.27;;
29358;SDS011;16347;53.232;6.556;2023-11-18T00:27:05;49.33;;;22.75;;
29358;SDS011;16347;53.232;6.556;2023-11-18T00:29:33;49.85;;;23.15;;
29358;SDS011;16347;53.232;6.556;2023-11-18T00:32:02;54.35;;;23.90;;
29358;SDS011;16347;53.232;6.556;2023-11-18T00:34:31;60.72;;;24.00;;
29358;SDS011;16347;53.232;6.556;2023-11-18T00:36:58;57.13;;;25.13;;
29358;SDS011;16347;53.232;6.556;2023-11-18T00:39:26;58.60;;;25.88;;
29358;SDS011;16347;53.232;6.556;2023-11-18T00:41:54;59.78;;;26.08;;
29358;SDS011;16347;53.232;6.556;2023-11-18T00:44:23;62.47;;;25.42;;
29358;SDS011;16347;53.232;6.556;2023-11-18T00:46:51;57.33;;;26.60;;
29358;SDS011;16347;53.232;6.556;2023-11-18T00:49:20;68.38;;;27.63;;
29358;SDS011;16347;53.232;6.556;2023-11-18T00:51:49;59.03;;;26.25;;
29358;SDS011;16347;53.232;6.556;2023-11-18T00:54:17;55.75;;;25.33;;
29358;SDS011;16347;53.232;6.556;2023-11-18T00:56:45;56.80;;;26.17;;
29358;SDS011;16347;53.232;6.556;2023-11-18T00:59:12;58.97;;;26.45;;
29358;SDS011;16347;53.232;6.556;2023-11-18T01:01:40;56.92;;;25.58;;
29358;SDS011;16347;53.232;6.556;2023-11-18T01:04:09;53.20;;;25.30;;
29358;SDS011;16347;53.232;6.556;2023-11-18T01:06:38;52.28;;;25.02;;
29358;SDS011;16347;53.232;6.556;2023-11-18T01:09:06;49.17;;;22.45;;
29358;SDS011;16347;53.232;6.556;2023-11-18T01:11:35;56.58;;;23.63;;
29358;SDS011;16347;53.232;6.556;2023-11-18T01:14:03;52.40;;;24.15;;
29358;SDS011;16347;53.232;6.556;2023-11-18T01:16:31;53.78;;;23.30;;
29358;SDS011;16347;53.232;6.556;2023-11-18T01:18:59;48.50;;;23.02;;
29358;SDS011;16347;53.232;6.556;2023-11-18T01:21:27;56.70;;;24.02;;
29358;SDS011;16347;53.232;6.556;2023-11-18T01:23:56;50.83;;;23.40;;
29358;SDS011;16347;53.232;6.556;2023-11-18T01:26:24;49.25;;;22.73;;
29358;SDS011;16347;53.232;6.556;2023-11-18T01:28:53;46.25;;;22.05;;
29358;SDS011;16347;53.232;6.556;2023-11-18T01:31:22;44.85;;;21.90;;
29358;SDS011;16347;53.232;6.556;2023-11-18T01:33:49;48.38;;;22.63;;
29358;SDS011;16347;53.232;6.556;2023-11-18T01:36:17;43.95;;;22.17;;
29358;SDS011;16347;53.232;6.556;2023-11-18T01:38:45;51.42;;;23.33;;
29358;SDS011;16347;53.232;6.556;2023-11-18T01:41:15;50.10;;;23.33;;
29358;SDS011;16347;53.232;6.556;2023-11-18T01:43:45;46.30;;;23.05;;
29358;SDS011;16347;53.232;6.556;2023-11-18T01:46:13;50.58;;;22.70;;
29358;SDS011;16347;53.232;6.556;2023-11-18T01:48:41;50.25;;;23.92;;
29358;SDS011;16347;53.232;6.556;2023-11-18T01:51:09;51.88;;;23.55;;
29358;SDS011;16347;53.232;6.556;2023-11-18T01:53:38;49.45;;;22.42;;
29358;SDS011;16347;53.232;6.556;2023-11-18T01:56:10;59.75;;;23.50;;
29358;SDS011;16347;53.232;6.556;2023-11-18T01:58:39;50.60;;;23.27;;
29358;SDS011;16347;53.232;6.556;2023-11-18T02:01:07;48.13;;;23.30;;
29358;SDS011;16347;53.232;6.556;2023-11-18T02:03:36;49.25;;;23.63;;
29358;SDS011;16347;53.232;6.556;2023-11-18T02:06:05;51.35;;;24.05;;
29358;SDS011;16347;53.232;6.556;2023-11-18T02:08:33;49.45;;;23.88;;
29358;SDS011;16347;53.232;6.556;2023-11-18T02:11:05;49.58;;;23.13;;
29358;SDS011;16347;53.232;6.556;2023-11-18T02:13:43;49.50;;;22.42;;
29358;SDS011;16347;53.232;6.556;2023-11-18T02:16:15;47.53;;;23.13;;
29358;SDS011;16347;53.232;6.556;2023-11-18T02:18:45;50.53;;;22.48;;
29358;SDS011;16347;53.232;6.556;2023-11-18T02:21:15;50.00;;;23.92;;
29358;SDS011;16347;53.232;6.556;2023-11-18T02:23:44;47.78;;;21.83;;
29358;SDS011;16347;53.232;6.556;2023-11-18T02:26:21;49.17;;;23.75;;
29358;SDS011;16347;53.232;6.556;2023-11-18T02:28:50;44.75;;;21.60;;
29358;SDS011;16347;53.232;6.556;2023-11-18T02:31:20;42.42;;;20.45;;
29358;SDS011;16347;53.232;6.556;2023-11-18T02:33:55;48.10;;;23.35;;
29358;SDS011;16347;53.232;6.556;2023-11-18T02:36:31;49.33;;;22.80;;
29358;SDS011;16347;53.232;6.556;2023-11-18T02:39:03;47.67;;;21.92;;
29358;SDS011;16347;53.232;6.556;2023-11-18T02:41:36;44.53;;;22.90;;
29358;SDS011;16347;53.232;6.556;2023-11-18T02:44:06;50.28;;;23.13;;
29358;SDS011;16347;53.232;6.556;2023-11-18T02:46:37;45.40;;;22.02;;
29358;SDS011;16347;53.232;6.556;2023-11-18T02:49:06;51.00;;;24.50;;
29358;SDS011;16347;53.232;6.556;2023-11-18T02:51:34;52.80;;;22.83;;
29358;SDS011;16347;53.232;6.556;2023-11-18T02:54:05;56.63;;;25.35;;
29358;SDS011;16347;53.232;6.556;2023-11-18T02:56:38;62.60;;;26.77;;
29358;SDS011;16347;53.232;6.556;2023-11-18T02:59:05;52.25;;;24.65;;
29358;SDS011;16347;53.232;6.556;2023-11-18T03:01:33;61.55;;;26.23;;
29358;SDS011;16347;53.232;6.556;2023-11-18T03:04:01;59.67;;;26.95;;
29358;SDS011;16347;53.232;6.556;2023-11-18T03:06:31;66.18;;;27.48;;
29358;SDS011;16347;53.232;6.556;2023-11-18T03:09:00;66.22;;;26.35;;
29358;SDS011;16347;53.232;6.556;2023-11-18T03:11:28;70.63;;;27.90;;
29358;SDS011;16347;53.232;6.556;2023-11-18T03:13:57;60.65;;;26.48;;
29358;SDS011;16347;53.232;6.556;2023-11-18T03:16:25;63.33;;;27.73;;
29358;SDS011;16347;53.232;6.556;2023-11-18T03:18:53;64.05;;;27.60;;
29358;SDS011;16347;53.232;6.556;2023-11-18T03:21:22;70.97;;;27.98;;
29358;SDS011;16347;53.232;6.556;2023-11-18T03:23:50;63.15;;;27.33;;
29358;SDS011;16347;53.232;6.556;2023-11-18T03:26:19;72.53;;;25.63;;
29358;SDS011;16347;53.232;6.556;2023-11-18T03:28:47;63.20;;;25.23;;
29358;SDS011;16347;53.232;6.556;2023-11-18T03:31:17;62.40;;;26.23;;
29358;SDS011;16347;53.232;6.556;2023-11-18T03:33:46;64.75;;;25.75;;
29358;SDS011;16347;53.232;6.556;2023-11-18T03:36:14;60.97;;;26.15;;
29358;SDS011;16347;53.232;6.556;2023-11-18T03:38:44;56.97;;;25.88;;
29358;SDS011;16347;53.232;6.556;2023-11-18T03:41:12;57.88;;;26.50;;
29358;SDS011;16347;53.232;6.556;2023-11-18T03:43:40;73.38;;;25.80;;
29358;SDS011;16347;53.232;6.556;2023-11-18T03:46:08;70.78;;;26.80;;
29358;SDS011;16347;53.232;6.556;2023-11-18T03:48:38;52.20;;;24.10;;
29358;SDS011;16347;53.232;6.556;2023-11-18T03:51:06;56.30;;;25.10;;
29358;SDS011;16347;53.232;6.556;2023-11-18T03:53:34;54.35;;;25.60;;
29358;SDS011;16347;53.232;6.556;2023-11-18T03:56:02;52.70;;;24.70;;
29358;SDS011;16347;53.232;6.556;2023-11-18T03:58:30;60.25;;;24.73;;
29358;SDS011;16347;53.232;6.556;2023-11-18T04:00:59;55.22;;;23.13;;
29358;SDS011;16347;53.232;6.556;2023-11-18T04:03:27;47.85;;;22.65;;
29358;SDS011;16347;53.232;6.556;2023-11-18T04:05:56;49.30;;;23.88;;
29358;SDS011;16347;53.232;6.556;2023-11-18T04:08:24;45.83;;;21.30;;
29358;SDS011;16347;53.232;6.556;2023-11-18T04:10:53;53.88;;;23.42;;
29358;SDS011;16347;53.232;6.556;2023-11-18T04:13:21;54.67;;;23.95;;
29358;SDS011;16347;53.232;6.556;2023-11-18T04:15:49;50.03;;;23.45;;
29358;SDS011;16347;53.232;6.556;2023-11-18T04:18:16;49.47;;;22.90;;
29358;SDS011;16347;53.232;6.556;2023-11-18T04:20:45;54.10;;;20.98;;
29358;SDS011;16347;53.232;6.556;2023-11-18T04:23:18;49.08;;;22.48;;
29358;SDS011;16347;53.232;6.556;2023-11-18T04:25:46;48.05;;;22.00;;
29358;SDS011;16347;53.232;6.556;2023-11-18T04:28:14;44.42;;;21.75;;
29358;SDS011;16347;53.232;6.556;2023-11-18T04:30:42;43.10;;;22.02;;
29358;SDS011;16347;53.232;6.556;2023-11-18T04:33:09;47.45;;;22.85;;
29358;SDS011;16347;53.232;6.556;2023-11-18T04:35:38;47.67;;;22.38;;
29358;SDS011;16347;53.232;6.556;2023-11-18T04:38:06;60.25;;;22.23;;
29358;SDS011;16347;53.232;6.556;2023-11-18T04:40:35;51.13;;;21.15;;
29358;SDS011;16347;53.232;6.556;2023-11-18T04:43:05;48.60;;;23.65;;
29358;SDS011;16347;53.232;6.556;2023-11-18T04:45:33;50.28;;;23.40;;
29358;SDS011;16347;53.232;6.556;2023-11-18T04:48:01;46.10;;;22.67;;
29358;SDS011;16347;53.232;6.556;2023-11-18T04:50:29;49.22;;;22.65;;
29358;SDS011;16347;53.232;6.556;2023-11-18T04:52:58;50.80;;;22.55;;
29358;SDS011;16347;53.232;6.556;2023-11-18T04:55:26;49.35;;;22.50;;
29358;SDS011;16347;53.232;6.556;2023-11-18T04:57:55;55.38;;;22.35;;
29358;SDS011;16347;53.232;6.556;2023-11-18T05:00:23;46.88;;;21.95;;
29358;SDS011;16347;53.232;6.556;2023-11-18T05:02:51;41.90;;;21.95;;
29358;SDS011;16347;53.232;6.556;2023-11-18T05:05:19;46.88;;;21.42;;
29358;SDS011;16347;53.232;6.556;2023-11-18T05:07:48;45.33;;;22.33;;
29358;SDS011;16347;53.232;6.556;2023-11-18T05:10:16;44.80;;;21.98;;
29358;SDS011;16347;53.232;6.556;2023-11-18T05:12:45;44.97;;;22.08;;
29358;SDS011;16347;53.232;6.556;2023-11-18T05:15:22;49.50;;;22.50;;
29358;SDS011;16347;53.232;6.556;2023-11-18T05:17:51;42.70;;;21.10;;
29358;SDS011;16347;53.232;6.556;2023-11-18T05:20:20;46.63;;;23.00;;
29358;SDS011;16347;53.232;6.556;2023-11-18T05:22:48;44.85;;;21.75;;
29358;SDS011;16347;53.232;6.556;2023-11-18T05:25:16;45.60;;;21.33;;
29358;SDS011;16347;53.232;6.556;2023-11-18T05:27:44;43.58;;;21.30;;
29358;SDS011;16347;53.232;6.556;2023-11-18T05:30:12;43.03;;;21.80;;
29358;SDS011;16347;53.232;6.556;2023-11-18T05:32:41;44.10;;;22.35;;
29358;SDS011;16347;53.232;6.556;2023-11-18T05:35:09;50.20;;;23.02;;
29358;SDS011;16347;53.232;6.556;2023-11-18T05:37:38;50.58;;;23.25;;
29358;SDS011;16347;53.232;6.556;2023-11-18T05:40:07;45.13;;;22.60;;
29358;SDS011;16347;53.232;6.556;2023-11-18T05:42:37;45.63;;;20.55;;
29358;SDS011;16347;53.232;6.556;2023-11-18T05:45:08;45.58;;;22.45;;
29358;SDS011;16347;53.232;6.556;2023-11-18T05:47:45;46.85;;;23.02;;
29358;SDS011;16347;53.232;6.556;2023-11-18T05:50:13;45.80;;;22.17;;
29358;SDS011;16347;53.232;6.556;2023-11-18T05:52:42;45.08;;;21.77;;
29358;SDS011;16347;53.232;6.556;2023-11-18T05:55:09;46.92;;;21.60;;
29358;SDS011;16347;53.232;6.556;2023-11-18T05:57:37;46.50;;;22.10;;
29358;SDS011;16347;53.232;6.556;2023-11-18T06:00:06;45.75;;;22.05;;
29358;SDS011;16347;53.232;6.556;2023-11-18T06:02:37;48.65;;;21.10;;
29358;SDS011;16347;53.232;6.556;2023-11-18T06:05:07;44.80;;;20.90;;
29358;SDS011;16347;53.232;6.556;2023-11-18T06:07:36;42.80;;;22.27;;
29358;SDS011;16347;53.232;6.556;2023-11-18T06:10:06;46.72;;;21.25;;
29358;SDS011;16347;53.232;6.556;2023-11-18T06:12:35;44.45;;;22.70;;
29358;SDS011;16347;53.232;6.556;2023-11-18T06:15:03;45.78;;;23.02;;
29358;SDS011;16347;53.232;6.556;2023-11-18T06:17:35;44.78;;;20.52;;
29358;SDS011;16347;53.232;6.556;2023-11-18T06:20:04;41.58;;;19.90;;
29358;SDS011;16347;53.232;6.556;2023-11-18T06:22:34;45.65;;;21.65;;
29358;SDS011;16347;53.232;6.556;2023-11-18T06:25:02;44.15;;;20.92;;
29358;SDS011;16347;53.232;6.556;2023-11-18T06:27:33;48.22;;;21.52;;
29358;SDS011;16347;53.232;6.556;2023-11-18T06:30:01;43.40;;;21.25;;
29358;SDS011;16347;53.232;6.556;2023-11-18T06:32:29;45.90;;;21.90;;
29358;SDS011;16347;53.232;6.556;2023-11-18T06:34:57;43.03;;;22.80;;
29358;SDS011;16347;53.232;6.556;2023-11-18T06:37:31;40.63;;;20.63;;
29358;SDS011;16347;53.232;6.556;2023-11-18T06:40:00;48.28;;;21.52;;
29358;SDS011;16347;53.232;6.556;2023-11-18T06:42:30;47.45;;;22.65;;
29358;SDS011;16347;53.232;6.556;2023-11-18T06:44:57;43.28;;;21.88;;
29358;SDS011;16347;53.232;6.556;2023-11-18T06:47:25;39.03;;;20.02;;
29358;SDS011;16347;53.232;6.556;2023-11-18T06:49:54;41.50;;;20.73;;
29358;SDS011;16347;53.232;6.556;2023-11-18T06:52:22;46.67;;;21.98;;
29358;SDS011;16347;53.232;6.556;2023-11-18T06:54:50;44.42;;;22.20;;
29358;SDS011;16347;53.232;6.556;2023-11-18T06:57:21;44.97;;;19.58;;
29358;SDS011;16347;53.232;6.556;2023-11-18T06:59:48;44.83;;;21.23;;
29358;SDS011;16347;53.232;6.556;2023-11-18T07:02:16;45.80;;;22.25;;
29358;SDS011;16347;53.232;6.556;2023-11-18T07:04:45;44.90;;;23.33;;
29358;SDS011;16347;53.232;6.556;2023-11-18T07:07:13;46.40;;;21.00;;
29358;SDS011;16347;53.232;6.556;2023-11-18T07:09:40;45.97;;;22.60;;
29358;SDS011;16347;53.232;6.556;2023-11-18T07:12:10;54.45;;;22.95;;
29358;SDS011;16347;53.232;6.556;2023-11-18T07:14:40;44.47;;;22.00;;
29358;SDS011;16347;53.232;6.556;2023-11-18T07:17:08;47.38;;;21.45;;
29358;SDS011;16347;53.232;6.556;2023-11-18T07:19:36;49.08;;;22.55;;
29358;SDS011;16347;53.232;6.556;2023-11-18T07:22:04;52.78;;;22.50;;
29358;SDS011;16347;53.232;6.556;2023-11-18T07:24:32;48.45;;;21.77;;
29358;SDS011;16347;53.232;6.556;2023-11-18T07:27:00;49.30;;;24.23;;
29358;SDS011;16347;53.232;6.556;2023-11-18T07:29:29;50.92;;;24.23;;
29358;SDS011;16347;53.232;6.556;2023-11-18T07:32:00;47.95;;;22.15;;
29358;SDS011;16347;53.232;6.556;2023-11-18T07:34:28;50.42;;;24.02;;
29358;SDS011;16347;53.232;6.556;2023-11-18T07:36:57;49.45;;;23.17;;
29358;SDS011;16347;53.232;6.556;2023-11-18T07:39:24;47.72;;;22.52;;
29358;SDS011;16347;53.232;6.556;2023-11-18T07:42:10;52.47;;;24.17;;
29358;SDS011;16347;53.232;6.556;2023-11-18T07:44:39;52.80;;;23.70;;
29358;SDS011;16347;53.232;6.556;2023-11-18T07:47:09;52.97;;;22.75;;
29358;SDS011;16347;53.232;6.556;2023-11-18T07:49:38;53.92;;;24.25;;
29358;SDS011;16347;53.232;6.556;2023-11-18T07:52:05;58.85;;;25.42;;
29358;SDS011;16347;53.232;6.556;2023-11-18T07:54:33;57.60;;;24.60;;
29358;SDS011;16347;53.232;6.556;2023-11-18T07:57:01;54.33;;;24.08;;
29358;SDS011;16347;53.232;6.556;2023-11-18T07:59:30;56.50;;;25.17;;
29358;SDS011;16347;53.232;6.556;2023-11-18T08:01:58;61.22;;;25.23;;
29358;SDS011;16347;53.232;6.556;2023-11-18T08:04:33;58.40;;;26.15;;
29358;SDS011;16347;53.232;6.556;2023-11-18T08:07:01;53.88;;;24.67;;
29358;SDS011;16347;53.232;6.556;2023-11-18T08:09:30;54.55;;;25.83;;
29358;SDS011;16347;53.232;6.556;2023-11-18T08:11:58;55.55;;;24.23;;
29358;SDS011;16347;53.232;6.556;2023-11-18T08:14:25;54.67;;;23.58;;
29358;SDS011;16347;53.232;6.556;2023-11-18T08:16:55;60.25;;;26.17;;
29358;SDS011;16347;53.232;6.556;2023-11-18T08:19:23;59.50;;;25.35;;
29358;SDS011;16347;53.232;6.556;2023-11-18T08:21:52;60.08;;;25.85;;
29358;SDS011;16347;53.232;6.556;2023-11-18T08:24:20;59.00;;;25.13;;
29358;SDS011;16347;53.232;6.556;2023-11-18T08:26:48;61.22;;;24.30;;
29358;SDS011;16347;53.232;6.556;2023-11-18T08:29:16;57.97;;;23.92;;
29358;SDS011;16347;53.232;6.556;2023-11-18T08:31:44;58.42;;;25.33;;
29358;SDS011;16347;53.232;6.556;2023-11-18T08:34:13;58.65;;;24.38;;
29358;SDS011;16347;53.232;6.556;2023-11-18T08:36:40;59.53;;;25.67;;
29358;SDS011;16347;53.232;6.556;2023-11-18T08:39:11;68.53;;;26.48;;
29358;SDS011;16347;53.232;6.556;2023-11-18T08:41:43;64.25;;;25.95;;
29358;SDS011;16347;53.232;6.556;2023-11-18T08:44:12;59.95;;;24.33;;
29358;SDS011;16347;53.232;6.556;2023-11-18T08:46:50;67.05;;;25.73;;
29358;SDS011;16347;53.232;6.556;2023-11-18T08:49:19;58.13;;;24.77;;
29358;SDS011;16347;53.232;6.556;2023-11-18T08:51:48;68.88;;;26.58;;
29358;SDS011;16347;53.232;6.556;2023-11-18T08:54:23;61.85;;;25.70;;
29358;SDS011;16347;53.232;6.556;2023-11-18T08:57:03;67.50;;;27.45;;
29358;SDS011;16347;53.232;6.556;2023-11-18T08:59:45;69.30;;;27.83;;
29358;SDS011;16347;53.232;6.556;2023-11-18T09:02:13;69.47;;;25.77;;
29358;SDS011;16347;53.232;6.556;2023-11-18T09:04:49;78.32;;;28.40;;
29358;SDS011;16347;53.232;6.556;2023-11-18T09:07:19;77.97;;;28.05;;
29358;SDS011;16347;53.232;6.556;2023-11-18T09:09:49;79.40;;;27.38;;
29358;SDS011;16347;53.232;6.556;2023-11-18T09:12:19;76.13;;;28.80;;
29358;SDS011;16347;53.232;6.556;2023-11-18T09:14:46;73.57;;;29.00;;
29358;SDS011;16347;53.232;6.556;2023-11-18T09:17:16;68.35;;;28.13;;
29358;SDS011;16347;53.232;6.556;2023-11-18T09:19:44;80.40;;;28.63;;
29358;SDS011;16347;53.232;6.556;2023-11-18T09:22:12;76.70;;;29.50;;
29358;SDS011;16347;53.232;6.556;2023-11-18T09:24:41;81.95;;;29.08;;
29358;SDS011;16347;53.232;6.556;2023-11-18T09:27:12;78.28;;;29.70;;
29358;SDS011;16347;53.232;6.556;2023-11-18T09:29:40;77.00;;;27.98;;
29358;SDS011;16347;53.232;6.556;2023-11-18T09:32:07;75.75;;;29.02;;
29358;SDS011;16347;53.232;6.556;2023-11-18T09:34:35;82.43;;;29.98;;
29358;SDS011;16347;53.232;6.556;2023-11-18T09:37:05;83.93;;;30.17;;
29358;SDS011;16347;53.232;6.556;2023-11-18T09:39:36;84.80;;;31.23;;
29358;SDS011;16347;53.232;6.556;2023-11-18T09:42:13;92.78;;;31.02;;
29358;SDS011;16347;53.232;6.556;2023-11-18T09:44:45;85.70;;;30.90;;
29358;SDS011;16347;53.232;6.556;2023-11-18T09:47:14;70.72;;;27.10;;
29358;SDS011;16347;53.232;6.556;2023-11-18T09:49:51;84.57;;;29.20;;
29358;SDS011;16347;53.232;6.556;2023-11-18T09:52:23;95.28;;;32.58;;
29358;SDS011;16347;53.232;6.556;2023-11-18T09:54:54;81.82;;;28.83;;
29358;SDS011;16347;53.232;6.556;2023-11-18T09:57:32;86.63;;;30.48;;
29358;SDS011;16347;53.232;6.556;2023-11-18T10:00:06;82.80;;;30.77;;
29358;SDS011;16347;53.232;6.556;2023-11-18T10:02:47;88.80;;;31.27;;
29358;SDS011;16347;53.232;6.556;2023-11-18T10:05:19;86.55;;;30.40;;
29358;SDS011;16347;53.232;6.556;2023-11-18T10:07:48;82.45;;;29.90;;
29358;SDS011;16347;53.232;6.556;2023-11-18T10:10:18;81.70;;;32.30;;
29358;SDS011;16347;53.232;6.556;2023-11-18T10:12:49;79.47;;;28.58;;
29358;SDS011;16347;53.232;6.556;2023-11-18T10:15:20;84.68;;;31.50;;
29358;SDS011;16347;53.232;6.556;2023-11-18T10:17:50;85.95;;;32.55;;
29358;SDS011;16347;53.232;6.556;2023-11-18T10:23:11;84.03;;;29.35;;
29358;SDS011;16347;53.232;6.556;2023-11-18T10:25:46;85.88;;;32.03;;
29358;SDS011;16347;53.232;6.556;2023-11-18T10:28:23;83.78;;;30.63;;
29358;SDS011;16347;53.232;6.556;2023-11-18T10:30:54;91.43;;;32.13;;
29358;SDS011;16347;53.232;6.556;2023-11-18T10:33:24;89.30;;;33.72;;
29358;SDS011;16347;53.232;6.556;2023-11-18T10:35:57;89.32;;;32.17;;
29358;SDS011;16347;53.232;6.556;2023-11-18T10:38:29;90.43;;;34.70;;
29358;SDS011;16347;53.232;6.556;2023-11-18T10:40:58;85.28;;;33.03;;
29358;SDS011;16347;53.232;6.556;2023-11-18T10:43:28;94.00;;;34.60;;
29358;SDS011;16347;53.232;6.556;2023-11-18T10:46:06;85.28;;;32.58;;
29358;SDS011;16347;53.232;6.556;2023-11-18T10:48:42;90.00;;;33.78;;
29358;SDS011;16347;53.232;6.556;2023-11-18T10:51:11;90.63;;;33.92;;
29358;SDS011;16347;53.232;6.556;2023-11-18T10:53:40;82.53;;;33.00;;
29358;SDS011;16347;53.232;6.556;2023-11-18T10:56:20;82.05;;;35.53;;
29358;SDS011;16347;53.232;6.556;2023-11-18T11:01:29;75.28;;;31.35;;
29358;SDS011;16347;53.232;6.556;2023-11-18T11:03:59;71.18;;;31.58;;
29358;SDS011;16347;53.232;6.556;2023-11-18T11:06:31;80.30;;;33.00;;
29358;SDS011;16347;53.232;6.556;2023-11-18T11:09:01;81.28;;;32.72;;
29358;SDS011;16347;53.232;6.556;2023-11-18T11:11:45;71.88;;;30.30;;
29358;SDS011;16347;53.232;6.556;2023-11-18T11:14:16;83.38;;;34.28;;
29358;SDS011;16347;53.232;6.556;2023-11-18T11:16:52;70.00;;;31.40;;
29358;SDS011;16347;53.232;6.556;2023-11-18T11:19:24;67.65;;;30.92;;
29358;SDS011;16347;53.232;6.556;2023-11-18T11:22:00;75.00;;;31.90;;
29358;SDS011;16347;53.232;6.556;2023-11-18T11:24:37;76.80;;;30.48;;
29358;SDS011;16347;53.232;6.556;2023-11-18T11:27:17;74.53;;;30.90;;
29358;SDS011;16347;53.232;6.556;2023-11-18T11:29:59;72.22;;;32.38;;
29358;SDS011;16347;53.232;6.556;2023-11-18T11:32:38;68.82;;;29.95;;
29358;SDS011;16347;53.232;6.556;2023-11-18T11:35:14;61.53;;;28.77;;
29358;SDS011;16347;53.232;6.556;2023-11-18T11:37:48;70.43;;;29.90;;
29358;SDS011;16347;53.232;6.556;2023-11-18T11:40:17;67.65;;;29.10;;
29358;SDS011;16347;53.232;6.556;2023-11-18T11:42:49;64.75;;;29.20;;
29358;SDS011;16347;53.232;6.556;2023-11-18T11:45:24;56.33;;;26.20;;
29358;SDS011;16347;53.232;6.556;2023-11-18T11:47:55;58.90;;;26.92;;
29358;SDS011;16347;53.232;6.556;2023-11-18T11:50:45;57.75;;;24.35;;
29358;SDS011;16347;53.232;6.556;2023-11-18T11:53:23;54.55;;;24.55;;
29358;SDS011;16347;53.232;6.556;2023-11-18T11:55:54;53.13;;;23.58;;
29358;SDS011;16347;53.232;6.556;2023-11-18T11:58:32;57.95;;;23.77;;
29358;SDS011;16347;53.232;6.556;2023-11-18T12:01:14;49.90;;;22.40;;
29358;SDS011;16347;53.232;6.556;2023-11-18T12:03:46;46.20;;;20.60;;
29358;SDS011;16347;53.232;6.556;2023-11-18T12:06:18;46.88;;;21.40;;
29358;SDS011;16347;53.232;6.556;2023-11-18T12:08:51;47.47;;;19.98;;
29358;SDS011;16347;53.232;6.556;2023-11-18T12:11:19;50.05;;;19.67;;
29358;SDS011;16347;53.232;6.556;2023-11-18T12:14:01;42.22;;;18.48;;
29358;SDS011;16347;53.232;6.556;2023-11-18T12:19:36;40.33;;;17.13;;
29358;SDS011;16347;53.232;6.556;2023-11-18T12:22:13;38.78;;;17.95;;
29358;SDS011;16347;53.232;6.556;2023-11-18T12:24:46;38.40;;;17.67;;
29358;SDS011;16347;53.232;6.556;2023-11-18T12:27:42;42.85;;;18.33;;
29358;SDS011;16347;53.232;6.556;2023-11-18T12:33:07;37.65;;;16.42;;
29358;SDS011;16347;53.232;6.556;2023-11-18T12:35:40;40.50;;;16.98;;
29358;SDS011;16347;53.232;6.556;2023-11-18T12:38:26;41.97;;;17.05;;
29358;SDS011;16347;53.232;6.556;2023-11-18T12:41:16;47.80;;;18.95;;
29358;SDS011;16347;53.232;6.556;2023-11-18T12:44:06;37.92;;;16.67;;
29358;SDS011;16347;53.232;6.556;2023-11-18T12:46:47;44.28;;;19.45;;
29358;SDS011;16347;53.232;6.556;2023-11-18T12:49:17;36.38;;;17.38;;
29358;SDS011;16347;53.232;6.556;2023-11-18T12:51:50;39.97;;;16.42;;
29358;SDS011;16347;53.232;6.556;2023-11-18T12:54:19;38.05;;;16.70;;
29358;SDS011;16347;53.232;6.556;2023-11-18T12:56:50;35.63;;;16.55;;
29358;SDS011;16347;53.232;6.556;2023-11-18T12:59:22;37.92;;;17.35;;
29358;SDS011;16347;53.232;6.556;2023-11-18T13:01:50;40.22;;;16.23;;
29358;SDS011;16347;53.232;6.556;2023-11-18T13:04:20;37.28;;;17.63;;
29358;SDS011;16347;53.232;6.556;2023-11-18T13:06:50;39.20;;;16.33;;
29358;SDS011;16347;53.232;6.556;2023-11-18T13:09:21;34.38;;;15.50;;
29358;SDS011;16347;53.232;6.556;2023-11-18T13:11:53;40.53;;;16.38;;
29358;SDS011;16347;53.232;6.556;2023-11-18T13:14:27;39.53;;;16.05;;
29358;SDS011;16347;53.232;6.556;2023-11-18T13:16:56;34.22;;;14.98;;
29358;SDS011;16347;53.232;6.556;2023-11-18T13:19:25;36.17;;;15.98;;
29358;SDS011;16347;53.232;6.556;2023-11-18T13:21:57;37.50;;;15.27;;
29358;SDS011;16347;53.232;6.556;2023-11-18T13:24:26;33.08;;;15.93;;
29358;SDS011;16347;53.232;6.556;2023-11-18T13:26:54;41.75;;;17.00;;
29358;SDS011;16347;53.232;6.556;2023-11-18T13:29:23;34.17;;;14.93;;
29358;SDS011;16347;53.232;6.556;2023-11-18T13:31:53;33.97;;;15.98;;
29358;SDS011;16347;53.232;6.556;2023-11-18T13:34:23;31.42;;;15.27;;
29358;SDS011;16347;53.232;6.556;2023-11-18T13:36:51;34.97;;;16.30;;
29358;SDS011;16347;53.232;6.556;2023-11-18T13:39:19;37.42;;;16.13;;
29358;SDS011;16347;53.232;6.556;2023-11-18T13:41:48;39.42;;;15.52;;
29358;SDS011;16347;53.232;6.556;2023-11-18T13:44:33;35.22;;;16.20;;
29358;SDS011;16347;53.232;6.556;2023-11-18T13:47:05;33.03;;;15.93;;
29358;SDS011;16347;53.232;6.556;2023-11-18T13:49:33;30.50;;;14.95;;
29358;SDS011;16347;53.232;6.556;2023-11-18T13:52:02;32.50;;;16.30;;
29358;SDS011;16347;53.232;6.556;2023-11-18T13:54:33;30.27;;;15.50;;
29358;SDS011;16347;53.232;6.556;2023-11-18T13:57:02;35.60;;;15.50;;
29358;SDS011;16347;53.232;6.556;2023-11-18T13:59:32;26.50;;;14.55;;
29358;SDS011;16347;53.232;6.556;2023-11-18T14:02:00;28.20;;;14.57;;
29358;SDS011;16347;53.232;6.556;2023-11-18T14:04:31;30.85;;;15.45;;
29358;SDS011;16347;53.232;6.556;2023-11-18T14:07:01;33.47;;;14.07;;
29358;SDS011;16347;53.232;6.556;2023-11-18T14:09:31;31.83;;;13.95;;
29358;SDS011;16347;53.232;6.556;2023-11-18T14:12:06;31.08;;;15.27;;
29358;SDS011;16347;53.232;6.556;2023-11-18T14:14:35;35.78;;;13.60;;
29358;SDS011;16347;53.232;6.556;2023-11-18T14:17:03;30.38;;;14.25;;
29358;SDS011;16347;53.232;6.556;2023-11-18T14:19:34;35.38;;;13.60;;
29358;SDS011;16347;53.232;6.556;2023-11-18T14:22:02;28.50;;;13.93;;
29358;SDS011;16347;53.232;6.556;2023-11-18T14:24:33;30.08;;;14.40;;
29358;SDS011;16347;53.232;6.556;2023-11-18T14:27:01;30.77;;;13.13;;
29358;SDS011;16347;53.232;6.556;2023-11-18T14:29:30;30.27;;;14.77;;
29358;SDS011;16347;53.232;6.556;2023-11-18T14:31:58;29.75;;;14.32;;
29358;SDS011;16347;53.232;6.556;2023-11-18T14:34:26;30.83;;;13.95;;
29358;SDS011;16347;53.232;6.556;2023-11-18T14:36:55;27.15;;;12.88;;
29358;SDS011;16347;53.232;6.556;2023-11-18T14:39:23;26.27;;;13.35;;
29358;SDS011;16347;53.232;6.556;2023-11-18T14:41:52;30.42;;;13.75;;
29358;SDS011;16347;53.232;6.556;2023-11-18T14:44:20;29.02;;;14.23;;
29358;SDS011;16347;53.232;6.556;2023-11-18T14:47:05;26.05;;;12.68;;
29358;SDS011;16347;53.232;6.556;2023-11-18T14:49:33;26.50;;;13.00;;
29358;SDS011;16347;53.232;6.556;2023-11-18T14:52:03;32.90;;;14.10;;